Time;durP1;ratioP1;P1;durP2;ratioP2;P2;SDS_P1;SDS_P2;PMS_P1;PMS_P2;Temp;Humidity;BMP_temperature;BMP_pressure;BME280_temperature;BME280_humidity;BME280_pressure;Samples;Min_cycle;Max_cycle;Signal;HPM_P1;HPM_P2
2023/01/18 00:00:40;;;;;;;2.97;1.83;;;;;;;;;;5052936;28;20104;-47
2023/01/18 00:03:10;;;;;;;3.47;2.10;;;;;;;;;;5053368;28;20083;-47
2023/01/18 00:05:39;;;;;;;3.00;1.95;;;;;;;;;;5052225;28;20028;-47
2023/01/18 00:08:14;;;;;;;3.47;1.98;;;;;;;;;;5053729;28;20071;-47
2023/01/18 00:10:40;;;;;;;3.72;2.30;;;;;;;;;;5052201;28;20120;-47
2023/01/18 00:13:06;;;;;;;3.92;2.10;;;;;;;;;;5052940;28;20029;-47
2023/01/18 00:15:33;;;;;;;3.03;1.90;;;;;;;;;;5049759;28;20076;-47
2023/01/18 00:17:59;;;;;;;3.45;1.90;;;;;;;;;;5053100;28;20029;-47
2023/01/18 00:20:26;;;;;;;3.58;2.00;;;;;;;;;;5051548;28;20381;-47
2023/01/18 00:22:52;;;;;;;2.65;1.50;;;;;;;;;;5064000;28;20035;-47
2023/01/18 00:25:19;;;;;;;3.00;1.77;;;;;;;;;;5071574;28;20111;-47
2023/01/18 00:27:46;;;;;;;2.72;1.90;;;;;;;;;;5058085;28;20025;-47
2023/01/18 00:30:13;;;;;;;3.20;2.33;;;;;;;;;;5050232;28;20017;-47
2023/01/18 00:32:39;;;;;;;2.50;1.60;;;;;;;;;;5052875;28;20036;-47
2023/01/18 00:35:06;;;;;;;3.85;2.05;;;;;;;;;;5052241;28;20025;-47
2023/01/18 00:37:34;;;;;;;2.42;1.70;;;;;;;;;;5051650;28;20092;-47
2023/01/18 00:39:59;;;;;;;4.28;1.73;;;;;;;;;;5052070;28;20037;-47
2023/01/18 00:45:10;;;;;;;3.17;1.90;;;;;;;;;;5052245;28;20028;-47
2023/01/18 00:47:36;;;;;;;3.97;1.90;;;;;;;;;;5050191;28;20035;-47
2023/01/18 00:50:02;;;;;;;2.53;1.67;;;;;;;;;;5051848;28;20114;-47
2023/01/18 00:52:28;;;;;;;2.63;1.52;;;;;;;;;;5052006;28;20021;-47
2023/01/18 00:54:54;;;;;;;3.47;1.92;;;;;;;;;;5052437;28;20028;-47
2023/01/18 00:57:20;;;;;;;3.35;1.60;;;;;;;;;;5051547;28;20025;-47
2023/01/18 00:59:46;;;;;;;2.97;2.17;;;;;;;;;;5052070;28;20021;-47
2023/01/18 01:02:12;;;;;;;2.70;2.10;;;;;;;;;;5052437;28;20017;-47
2023/01/18 01:07:23;;;;;;;3.63;1.60;;;;;;;;;;5051157;28;20074;-47
2023/01/18 01:09:49;;;;;;;1.90;1.30;;;;;;;;;;5051795;28;20029;-47
2023/01/18 01:26:07;;;;;;;2.35;1.40;;;;;;;;;;5072037;28;20407;-47
2023/01/18 01:28:53;;;;;;;2.83;1.55;;;;;;;;;;5071253;28;20454;-47
2023/01/18 01:31:20;;;;;;;1.50;1.40;;;;;;;;;;5070670;28;20492;-47
2023/01/18 01:33:49;;;;;;;2.22;1.33;;;;;;;;;;5071591;28;20035;-47
2023/01/18 01:36:16;;;;;;;4.30;1.73;;;;;;;;;;5052437;28;20017;-47
2023/01/18 01:38:43;;;;;;;1.83;1.33;;;;;;;;;;5049390;28;20029;-47
2023/01/18 01:41:13;;;;;;;2.85;2.00;;;;;;;;;;5051619;28;20482;-47
2023/01/18 01:43:39;;;;;;;3.00;1.75;;;;;;;;;;5051232;28;20051;-47
2023/01/18 01:46:12;;;;;;;1.83;1.30;;;;;;;;;;5033917;28;20458;-47
2023/01/18 01:48:38;;;;;;;2.05;1.35;;;;;;;;;;5050562;28;20112;-47
2023/01/18 01:51:04;;;;;;;2.58;1.73;;;;;;;;;;5051518;28;20111;-47
2023/01/18 01:53:30;;;;;;;1.65;1.20;;;;;;;;;;5049856;28;20032;-47
2023/01/18 01:55:56;;;;;;;1.55;1.20;;;;;;;;;;5049485;28;20096;-47
2023/01/18 01:58:24;;;;;;;2.17;1.35;;;;;;;;;;5049601;28;20109;-47
2023/01/18 02:00:52;;;;;;;1.85;1.30;;;;;;;;;;5050944;28;20048;-47
2023/01/18 02:03:18;;;;;;;2.70;1.65;;;;;;;;;;5049682;28;20021;-47
2023/01/18 02:05:50;;;;;;;2.42;1.20;;;;;;;;;;5050951;28;20032;-47
2023/01/18 02:08:23;;;;;;;2.58;2.10;;;;;;;;;;5049478;28;20683;-47
2023/01/18 02:10:50;;;;;;;2.28;1.60;;;;;;;;;;5050810;28;20041;-47
2023/01/18 02:13:16;;;;;;;1.88;1.40;;;;;;;;;;5048364;28;20454;-47
2023/01/18 02:15:53;;;;;;;2.47;1.67;;;;;;;;;;5050706;28;20079;-47
2023/01/18 02:18:22;;;;;;;2.42;1.55;;;;;;;;;;5050008;28;20029;-47
2023/01/18 02:21:00;;;;;;;1.92;1.30;;;;;;;;;;5051540;28;20035;-47
2023/01/18 02:23:55;;;;;;;1.98;1.20;;;;;;;;;;5065737;28;20055;-47
2023/01/18 02:26:33;;;;;;;2.25;1.30;;;;;;;;;;5037979;28;20041;-47
2023/01/18 02:29:02;;;;;;;2.33;1.50;;;;;;;;;;5051041;28;20470;-46
2023/01/18 02:31:33;;;;;;;2.17;1.45;;;;;;;;;;5049479;28;20090;-47
2023/01/18 02:34:04;;;;;;;2.38;1.48;;;;;;;;;;5050975;28;20114;-47
2023/01/18 02:36:41;;;;;;;1.65;1.30;;;;;;;;;;5053933;28;20466;-47
2023/01/18 02:39:22;;;;;;;2.28;1.33;;;;;;;;;;5054473;28;20032;-47
2023/01/18 02:47:25;;;;;;;2.05;1.30;;;;;;;;;;5032753;28;20092;-47
2023/01/18 02:49:51;;;;;;;2.53;1.17;;;;;;;;;;5053205;28;20025;-47
2023/01/18 02:52:36;;;;;;;1.55;1.02;;;;;;;;;;5053872;28;20087;-47
2023/01/18 02:55:02;;;;;;;1.70;1.42;;;;;;;;;;5053985;28;20457;-47
2023/01/18 02:57:28;;;;;;;1.98;1.10;;;;;;;;;;5053695;28;20390;-47
2023/01/18 02:59:55;;;;;;;2.38;1.75;;;;;;;;;;5053639;28;20064;-48
2023/01/18 03:02:23;;;;;;;2.35;1.20;;;;;;;;;;5053826;28;20033;-47
2023/01/18 03:04:53;;;;;;;2.20;1.63;;;;;;;;;;5054016;28;20086;-47
2023/01/18 03:07:28;;;;;;;2.47;1.30;;;;;;;;;;5052177;28;20021;-47
2023/01/18 03:09:54;;;;;;;1.80;1.23;;;;;;;;;;5053792;28;20519;-47
2023/01/18 03:12:20;;;;;;;1.52;1.23;;;;;;;;;;5053567;28;20033;-47
2023/01/18 03:14:56;;;;;;;3.33;1.05;;;;;;;;;;5053481;28;20387;-46
2023/01/18 03:17:56;;;;;;;2.25;1.33;;;;;;;;;;5053625;28;20029;-47
2023/01/18 03:20:24;;;;;;;3.22;1.20;;;;;;;;;;5019932;28;20033;-47
2023/01/18 03:25:55;;;;;;;1.80;1.20;;;;;;;;;;5074265;28;20386;-47
2023/01/18 03:34:19;;;;;;;1.95;1.30;;;;;;;;;;5065495;28;20596;-47
2023/01/18 03:36:46;;;;;;;1.98;1.08;;;;;;;;;;5054024;28;20032;-47
2023/01/18 03:39:18;;;;;;;1.73;1.20;;;;;;;;;;5051538;28;20029;-48
2023/01/18 03:41:47;;;;;;;1.70;1.00;;;;;;;;;;5053566;28;20470;-47
2023/01/18 03:44:16;;;;;;;1.02;0.85;;;;;;;;;;5053057;28;20029;-47
2023/01/18 03:46:42;;;;;;;1.33;1.10;;;;;;;;;;5052813;28;20028;-46
2023/01/18 03:49:09;;;;;;;1.52;1.13;;;;;;;;;;5053353;28;20029;-47
2023/01/18 03:51:54;;;;;;;1.63;0.88;;;;;;;;;;5053147;28;20071;-47
2023/01/18 03:54:27;;;;;;;2.13;1.17;;;;;;;;;;5052393;28;20374;-47
2023/01/18 03:56:57;;;;;;;1.92;1.05;;;;;;;;;;5051826;28;20116;-47
2023/01/18 03:59:23;;;;;;;1.10;0.98;;;;;;;;;;5052563;28;20029;-47
2023/01/18 04:01:49;;;;;;;1.85;1.27;;;;;;;;;;5053761;28;20061;-47
2023/01/18 04:04:15;;;;;;;1.42;0.90;;;;;;;;;;5052557;28;20102;-47
2023/01/18 04:06:41;;;;;;;2.50;1.05;;;;;;;;;;5053105;28;20025;-46
2023/01/18 04:09:07;;;;;;;1.33;1.05;;;;;;;;;;5052689;28;20086;-47
2023/01/18 04:11:33;;;;;;;1.30;1.17;;;;;;;;;;5050786;28;20024;-46
2023/01/18 04:13:59;;;;;;;1.83;1.40;;;;;;;;;;5052858;28;20493;-47
2023/01/18 04:16:25;;;;;;;2.40;1.02;;;;;;;;;;5051667;28;20077;-47
2023/01/18 04:18:51;;;;;;;2.17;1.50;;;;;;;;;;5052690;28;20463;-47
2023/01/18 04:21:17;;;;;;;1.63;1.17;;;;;;;;;;5052238;28;20029;-47
2023/01/18 04:23:43;;;;;;;0.90;0.80;;;;;;;;;;5070876;28;20089;-46
2023/01/18 04:26:10;;;;;;;2.38;1.38;;;;;;;;;;5055587;28;20117;-47
2023/01/18 04:28:36;;;;;;;1.35;0.90;;;;;;;;;;5050102;28;20404;-47
2023/01/18 04:31:02;;;;;;;1.50;1.17;;;;;;;;;;5053206;28;20060;-47
2023/01/18 04:33:28;;;;;;;1.85;1.02;;;;;;;;;;5051307;28;20017;-46
2023/01/18 04:35:54;;;;;;;2.53;1.33;;;;;;;;;;5052754;28;20079;-47
2023/01/18 04:38:20;;;;;;;1.25;0.90;;;;;;;;;;5051691;28;20083;-47
2023/01/18 04:40:46;;;;;;;1.33;1.10;;;;;;;;;;5052635;28;20343;-46
2023/01/18 04:43:12;;;;;;;1.10;1.00;;;;;;;;;;5052358;28;20079;-47
2023/01/18 04:45:38;;;;;;;1.05;0.82;;;;;;;;;;5049811;28;20558;-47
2023/01/18 04:48:04;;;;;;;1.40;0.82;;;;;;;;;;5052648;28;20025;-47
2023/01/18 04:50:30;;;;;;;1.25;1.10;;;;;;;;;;5051285;28;20408;-47
2023/01/18 04:52:57;;;;;;;1.42;1.17;;;;;;;;;;5052272;28;20027;-47
2023/01/18 04:55:23;;;;;;;1.02;0.93;;;;;;;;;;5051124;28;20489;-47
2023/01/18 04:57:55;;;;;;;1.70;0.90;;;;;;;;;;5052591;28;20025;-47
2023/01/18 05:00:21;;;;;;;;;;;;;;;;;;5049602;28;20462;-47
2023/01/18 05:02:47;;;;;;;1.70;1.25;;;;;;;;;;5052317;28;19904;-47
2023/01/18 05:05:13;;;;;;;1.08;0.82;;;;;;;;;;5051213;28;20024;-47
2023/01/18 05:07:39;;;;;;;1.38;0.95;;;;;;;;;;5051739;28;20393;-47
2023/01/18 05:10:05;;;;;;;2.08;0.90;;;;;;;;;;5051657;28;20230;-47
2023/01/18 05:12:31;;;;;;;1.63;1.10;;;;;;;;;;5050735;28;20044;-46
2023/01/18 05:14:57;;;;;;;1.30;1.15;;;;;;;;;;5050983;28;20044;-47
2023/01/18 05:17:29;;;;;;;2.25;0.95;;;;;;;;;;5049453;28;20051;-47
2023/01/18 05:19:55;;;;;;;1.30;0.95;;;;;;;;;;5051619;28;20025;-47
2023/01/18 05:22:21;;;;;;;1.48;1.10;;;;;;;;;;5057619;28;20017;-47
2023/01/18 05:24:48;;;;;;;1.60;1.05;;;;;;;;;;5071830;28;20032;-47
2023/01/18 05:27:14;;;;;;;1.65;1.02;;;;;;;;;;5071539;28;20378;-47
2023/01/18 05:29:41;;;;;;;1.35;0.93;;;;;;;;;;5071026;28;20075;-46
2023/01/18 05:32:07;;;;;;;4.10;0.90;;;;;;;;;;5071714;28;20423;-47
2023/01/18 05:34:33;;;;;;;1.27;0.90;;;;;;;;;;5049974;28;20670;-46
2023/01/18 05:36:59;;;;;;;1.17;0.70;;;;;;;;;;5052395;28;20024;-47
2023/01/18 05:39:25;;;;;;;1.10;0.80;;;;;;;;;;5051308;28;20032;-47
2023/01/18 05:41:51;;;;;;;1.27;1.00;;;;;;;;;;5051487;28;20022;-46
2023/01/18 05:44:17;;;;;;;1.33;0.90;;;;;;;;;;5050435;28;20508;-47
2023/01/18 05:46:43;;;;;;;3.05;1.10;;;;;;;;;;5051992;28;20044;-47
2023/01/18 05:49:09;;;;;;;1.23;0.88;;;;;;;;;;5049636;28;20033;-47
2023/01/18 05:51:35;;;;;;;1.70;0.90;;;;;;;;;;5050103;28;20032;-47
2023/01/18 05:54:01;;;;;;;0.77;0.70;;;;;;;;;;5051202;28;20021;-47
2023/01/18 05:56:27;;;;;;;1.90;1.08;;;;;;;;;;5048746;28;20025;-47
2023/01/18 05:58:53;;;;;;;1.33;0.93;;;;;;;;;;5050749;28;20024;-47
2023/01/18 06:01:19;;;;;;;1.08;0.85;;;;;;;;;;5050824;28;20057;-46
2023/01/18 06:03:45;;;;;;;1.92;1.05;;;;;;;;;;5050910;28;20028;-47
2023/01/18 06:06:11;;;;;;;1.20;0.90;;;;;;;;;;5049219;28;20470;-47
2023/01/18 06:08:37;;;;;;;1.55;0.88;;;;;;;;;;5049930;28;20025;-47
2023/01/18 06:11:05;;;;;;;0.90;0.70;;;;;;;;;;5055035;28;20407;-48
2023/01/18 06:13:31;;;;;;;2.42;0.70;;;;;;;;;;5053630;28;20017;-48
2023/01/18 06:15:58;;;;;;;1.58;0.60;;;;;;;;;;5054100;28;20049;-47
2023/01/18 06:18:25;;;;;;;2.60;1.10;;;;;;;;;;5053423;28;20029;-48
2023/01/18 06:20:54;;;;;;;2.50;0.73;;;;;;;;;;5052671;28;20022;-47
2023/01/18 06:23:20;;;;;;;0.75;0.70;;;;;;;;;;5065490;28;20489;-48
2023/01/18 06:25:46;;;;;;;1.40;0.65;;;;;;;;;;5055089;28;20061;-48
2023/01/18 06:28:12;;;;;;;1.40;0.80;;;;;;;;;;5054527;28;20463;-47
2023/01/18 06:30:41;;;;;;;1.63;0.70;;;;;;;;;;5054019;28;20458;-47
2023/01/18 06:33:07;;;;;;;1.75;0.63;;;;;;;;;;5055057;28;20120;-47
2023/01/18 06:35:34;;;;;;;6.70;0.93;;;;;;;;;;5051907;28;20687;-48
2023/01/18 06:38:00;;;;;;;1.20;0.98;;;;;;;;;;5054659;28;20047;-48
2023/01/18 06:40:26;;;;;;;2.22;1.02;;;;;;;;;;5053610;28;20366;-45
2023/01/18 06:42:52;;;;;;;4.85;0.98;;;;;;;;;;5054960;28;20078;-43
2023/01/18 06:45:20;;;;;;;1.50;1.08;;;;;;;;;;5054135;28;20025;-44
2023/01/18 06:47:46;;;;;;;2.40;0.98;;;;;;;;;;5055432;28;20362;-45
2023/01/18 06:50:13;;;;;;;4.85;0.80;;;;;;;;;;5049781;28;20361;-42
2023/01/18 06:52:39;;;;;;;2.10;1.20;;;;;;;;;;5053552;28;20037;-43
2023/01/18 06:55:05;;;;;;;1.70;0.90;;;;;;;;;;5054384;28;20017;-43
2023/01/18 06:57:31;;;;;;;3.20;0.90;;;;;;;;;;5053590;28;20385;-41
2023/01/18 06:59:57;;;;;;;2.42;0.80;;;;;;;;;;5053772;28;20035;-44
2023/01/18 07:02:23;;;;;;;1.33;0.73;;;;;;;;;;5053557;28;20809;-41
2023/01/18 07:04:49;;;;;;;3.10;1.20;;;;;;;;;;5053871;28;20027;-43
2023/01/18 07:07:15;;;;;;;3.47;0.80;;;;;;;;;;5052079;28;20067;-42
2023/01/18 07:09:41;;;;;;;2.00;0.70;;;;;;;;;;5053776;28;20035;-42
2023/01/18 07:12:07;;;;;;;2.40;0.60;;;;;;;;;;5054519;28;20025;-42
2023/01/18 07:14:33;;;;;;;1.75;0.80;;;;;;;;;;5052326;28;20029;-43
2023/01/18 07:16:59;;;;;;;1.23;0.73;;;;;;;;;;5054113;28;20033;-45
2023/01/18 07:19:25;;;;;;;2.85;0.82;;;;;;;;;;5052742;28;20070;-46
2023/01/18 07:21:52;;;;;;;1.35;0.70;;;;;;;;;;5056595;28;20097;-43
2023/01/18 07:24:18;;;;;;;0.77;0.70;;;;;;;;;;5065931;28;20374;-43
2023/01/18 07:26:44;;;;;;;1.23;0.70;;;;;;;;;;5033694;28;20054;-42
2023/01/18 07:29:10;;;;;;;2.00;0.80;;;;;;;;;;5034495;28;20032;-42
2023/01/18 07:31:39;;;;;;;5.03;0.85;;;;;;;;;;5045729;28;20029;-43
2023/01/18 07:34:06;;;;;;;2.78;1.38;;;;;;;;;;5053356;28;20025;-44
2023/01/18 07:36:32;;;;;;;2.75;1.10;;;;;;;;;;5051286;28;20036;-45
2023/01/18 07:39:00;;;;;;;2.22;1.00;;;;;;;;;;5046458;28;20104;-43
2023/01/18 07:41:26;;;;;;;1.17;0.70;;;;;;;;;;5051660;28;20037;-42
2023/01/18 07:43:52;;;;;;;2.00;0.90;;;;;;;;;;5052232;28;20049;-42
2023/01/18 07:46:19;;;;;;;1.48;0.88;;;;;;;;;;5051356;28;20055;-43
2023/01/18 07:48:47;;;;;;;1.65;0.85;;;;;;;;;;5050776;28;20017;-42
2023/01/18 07:51:13;;;;;;;1.48;0.88;;;;;;;;;;5043349;28;20103;-42
2023/01/18 07:53:39;;;;;;;1.98;1.00;;;;;;;;;;5050377;28;20032;-42
2023/01/18 07:56:06;;;;;;;1.58;0.98;;;;;;;;;;5052219;28;20013;-42
2023/01/18 07:58:33;;;;;;;2.35;0.68;;;;;;;;;;5050914;28;20694;-43
2023/01/18 08:01:03;;;;;;;2.50;1.10;;;;;;;;;;5049056;28;20022;-42
2023/01/18 08:03:29;;;;;;;0.85;0.73;;;;;;;;;;5043842;28;20033;-41
2023/01/18 08:05:57;;;;;;;1.27;0.80;;;;;;;;;;5045486;28;20017;-43
2023/01/18 08:08:23;;;;;;;2.75;0.90;;;;;;;;;;5040703;28;20067;-41
2023/01/18 08:10:53;;;;;;;1.45;0.82;;;;;;;;;;5047012;28;20044;-42
2023/01/18 08:13:19;;;;;;;2.55;0.85;;;;;;;;;;5048030;28;20025;-43
2023/01/18 08:15:45;;;;;;;1.10;0.75;;;;;;;;;;5051233;28;20051;-42
2023/01/18 08:18:13;;;;;;;3.42;0.80;;;;;;;;;;5051631;28;20025;-42
2023/01/18 08:20:39;;;;;;;2.33;0.90;;;;;;;;;;5048775;28;20025;-42
2023/01/18 08:23:05;;;;;;;1.67;0.73;;;;;;;;;;5055623;28;20051;-42
2023/01/18 08:25:32;;;;;;;1.85;1.05;;;;;;;;;;5049786;28;20067;-42
2023/01/18 08:27:59;;;;;;;2.13;1.00;;;;;;;;;;5051425;28;20355;-42
2023/01/18 08:30:30;;;;;;;1.88;1.05;;;;;;;;;;5050132;28;20074;-42
2023/01/18 08:32:57;;;;;;;1.45;1.00;;;;;;;;;;5050877;28;20052;-43
2023/01/18 08:35:23;;;;;;;1.27;0.73;;;;;;;;;;5050369;28;20032;-42
2023/01/18 08:37:50;;;;;;;2.75;0.93;;;;;;;;;;5051203;28;20017;-42
2023/01/18 08:40:16;;;;;;;1.65;0.80;;;;;;;;;;5049806;28;20060;-42
2023/01/18 08:42:42;;;;;;;1.75;0.90;;;;;;;;;;5051459;28;20053;-42
2023/01/18 08:45:09;;;;;;;2.80;0.90;;;;;;;;;;5050202;28;20064;-42
2023/01/18 08:47:35;;;;;;;1.05;0.63;;;;;;;;;;5049386;28;20564;-42
2023/01/18 08:50:01;;;;;;;0.75;0.75;;;;;;;;;;5050678;28;20056;-42
2023/01/18 08:52:27;;;;;;;1.30;0.73;;;;;;;;;;5050299;28;20057;-42
2023/01/18 08:54:53;;;;;;;1.92;0.90;;;;;;;;;;5053123;28;20131;-42
2023/01/18 08:57:19;;;;;;;2.88;0.63;;;;;;;;;;5050321;28;20369;-42
2023/01/18 08:59:45;;;;;;;1.75;1.17;;;;;;;;;;5050229;28;20358;-42
2023/01/18 09:02:11;;;;;;;2.05;0.90;;;;;;;;;;5050747;28;20028;-42
2023/01/18 09:04:37;;;;;;;1.42;1.10;;;;;;;;;;5049703;28;20021;-43
2023/01/18 09:07:03;;;;;;;1.85;1.02;;;;;;;;;;5051042;28;20386;-42
2023/01/18 09:09:29;;;;;;;1.88;0.90;;;;;;;;;;5049213;28;20493;-44
2023/01/18 09:11:57;;;;;;;1.80;0.77;;;;;;;;;;5050619;28;20033;-41
2023/01/18 09:14:23;;;;;;;2.15;0.82;;;;;;;;;;5049611;28;20106;-43
2023/01/18 09:16:49;;;;;;;1.13;0.95;;;;;;;;;;5057292;28;20098;-42
2023/01/18 09:19:15;;;;;;;0.70;0.50;;;;;;;;;;5053218;28;20466;-42
2023/01/18 09:21:41;;;;;;;1.13;0.70;;;;;;;;;;5051652;28;20032;-42
2023/01/18 09:24:07;;;;;;;2.42;0.82;;;;;;;;;;5048833;28;20079;-41
2023/01/18 09:26:33;;;;;;;1.83;0.60;;;;;;;;;;5043802;28;20017;-43
2023/01/18 09:28:59;;;;;;;1.00;0.60;;;;;;;;;;5049803;28;20108;-43
2023/01/18 09:31:26;;;;;;;0.90;0.70;;;;;;;;;;5049133;28;20029;-43
2023/01/18 09:33:52;;;;;;;1.52;0.70;;;;;;;;;;5048882;28;20535;-43
2023/01/18 09:36:20;;;;;;;0.85;0.68;;;;;;;;;;5049997;28;20378;-42
2023/01/18 09:38:46;;;;;;;1.00;0.60;;;;;;;;;;5050689;28;20013;-42
2023/01/18 09:41:18;;;;;;;1.23;0.80;;;;;;;;;;5050011;28;20493;-43
2023/01/18 09:43:48;;;;;;;0.82;0.70;;;;;;;;;;5047690;28;20033;-42
2023/01/18 09:46:24;;;;;;;1.27;0.70;;;;;;;;;;5049889;28;20052;-42
2023/01/18 09:49:01;;;;;;;2.28;0.90;;;;;;;;;;5049732;28;20028;-42
2023/01/18 09:51:31;;;;;;;1.15;0.70;;;;;;;;;;5049615;28;20390;-42
2023/01/18 09:53:57;;;;;;;1.20;0.73;;;;;;;;;;5048670;28;20021;-42
2023/01/18 09:56:27;;;;;;;2.05;0.80;;;;;;;;;;5049565;28;20352;-42
2023/01/18 09:59:12;;;;;;;1.02;0.65;;;;;;;;;;5049399;28;20083;-42
2023/01/18 10:01:39;;;;;;;1.20;0.70;;;;;;;;;;5051593;28;20099;-42
2023/01/18 10:04:12;;;;;;;0.85;0.60;;;;;;;;;;5049657;28;20028;-43
2023/01/18 10:06:50;;;;;;;0.80;0.57;;;;;;;;;;5048875;28;20037;-42
2023/01/18 10:09:25;;;;;;;0.95;0.85;;;;;;;;;;5048285;28;20083;-42
2023/01/18 10:11:58;;;;;;;1.48;0.77;;;;;;;;;;5048865;28;20053;-42
2023/01/18 10:14:44;;;;;;;2.83;0.95;;;;;;;;;;5039426;28;20382;-42
2023/01/18 10:17:13;;;;;;;1.00;0.73;;;;;;;;;;5004178;28;20104;-42
2023/01/18 10:19:39;;;;;;;1.13;0.80;;;;;;;;;;5047544;28;20025;-42
2023/01/18 10:22:05;;;;;;;2.08;0.75;;;;;;;;;;5048746;28;20052;-42
2023/01/18 10:24:37;;;;;;;0.73;0.73;;;;;;;;;;5049899;28;20048;-43
2023/01/18 10:27:23;;;;;;;1.40;0.98;;;;;;;;;;5049318;28;20363;-42
2023/01/18 10:30:01;;;;;;;0.60;0.60;;;;;;;;;;5034228;28;20397;-42
2023/01/18 10:32:27;;;;;;;3.67;1.08;;;;;;;;;;5048135;28;20037;-44
2023/01/18 10:34:54;;;;;;;1.25;0.85;;;;;;;;;;5043257;28;20026;-42
2023/01/18 10:37:36;;;;;;;0.82;0.65;;;;;;;;;;5043742;28;20025;-42
2023/01/18 10:40:02;;;;;;;;;;;;;;;;;;5047796;28;20505;-42
2023/01/18 10:42:35;;;;;;;0.65;0.60;;;;;;;;;;5040368;28;19996;-42
2023/01/18 10:45:01;;;;;;;0.88;0.60;;;;;;;;;;5040907;28;20035;-43
2023/01/18 10:47:27;;;;;;;1.23;0.70;;;;;;;;;;5048519;28;20017;-43
2023/01/18 10:49:57;;;;;;;0.80;0.73;;;;;;;;;;5048725;28;20029;-42
2023/01/18 10:52:24;;;;;;;0.95;0.70;;;;;;;;;;5048922;28;20020;-42
2023/01/18 10:55:00;;;;;;;0.88;0.77;;;;;;;;;;5048997;28;20025;-42
2023/01/18 10:57:47;;;;;;;2.13;0.70;;;;;;;;;;5052341;28;20032;-42
2023/01/18 11:00:21;;;;;;;2.25;0.60;;;;;;;;;;5052319;28;20033;-43
2023/01/18 11:02:48;;;;;;;1.92;0.77;;;;;;;;;;5045514;28;20097;-42
2023/01/18 11:05:17;;;;;;;1.02;0.70;;;;;;;;;;5052350;28;20024;-42
2023/01/18 11:07:43;;;;;;;0.50;0.50;;;;;;;;;;5036440;28;20025;-42
2023/01/18 11:10:29;;;;;;;1.13;0.80;;;;;;;;;;5052593;28;20032;-42
2023/01/18 11:12:56;;;;;;;0.98;0.60;;;;;;;;;;5051777;28;20029;-43
2023/01/18 11:15:23;;;;;;;2.42;1.17;;;;;;;;;;5050137;28;20107;-42
2023/01/18 11:17:53;;;;;;;2.97;1.10;;;;;;;;;;5052030;28;20055;-42
2023/01/18 11:20:23;;;;;;;1.13;0.45;;;;;;;;;;5051300;28;20132;-42
2023/01/18 11:22:53;;;;;;;1.10;0.77;;;;;;;;;;5063039;28;20096;-42
2023/01/18 11:25:19;;;;;;;1.77;0.80;;;;;;;;;;5052119;28;20363;-42
2023/01/18 11:27:46;;;;;;;1.85;1.00;;;;;;;;;;5052417;28;20029;-43
2023/01/18 11:30:20;;;;;;;2.90;0.70;;;;;;;;;;5051689;28;20027;-43
2023/01/18 11:32:46;;;;;;;2.67;0.90;;;;;;;;;;5052568;28;20108;-42
2023/01/18 11:35:24;;;;;;;0.98;0.60;;;;;;;;;;5051412;28;20021;-43
2023/01/18 11:37:50;;;;;;;1.02;0.90;;;;;;;;;;5051948;28;20013;-42
2023/01/18 11:40:25;;;;;;;0.63;0.50;;;;;;;;;;5051192;28;20047;-42
2023/01/18 11:42:57;;;;;;;1.48;0.68;;;;;;;;;;5052505;28;20028;-43
2023/01/18 11:45:34;;;;;;;3.00;1.05;;;;;;;;;;5051250;28;20034;-43
2023/01/18 11:48:04;;;;;;;1.77;0.80;;;;;;;;;;5052133;28;20024;-45
2023/01/18 11:50:30;;;;;;;1.42;0.80;;;;;;;;;;5050986;28;20032;-43
2023/01/18 11:53:05;;;;;;;0.80;0.60;;;;;;;;;;5051218;28;20025;-43
2023/01/18 11:55:33;;;;;;;0.70;0.60;;;;;;;;;;5047969;28;20562;-43
2023/01/18 11:57:59;;;;;;;2.90;0.80;;;;;;;;;;5052118;28;20100;-42
2023/01/18 12:00:27;;;;;;;1.50;0.75;;;;;;;;;;5050858;28;20029;-43
2023/01/18 12:02:59;;;;;;;0.98;0.80;;;;;;;;;;5051640;28;20281;-42
2023/01/18 12:05:26;;;;;;;;;;;;;;;;;;5050847;28;20025;-43
2023/01/18 12:08:11;;;;;;;0.90;0.70;;;;;;;;;;5050644;28;19948;-43
2023/01/18 12:10:47;;;;;;;0.57;0.45;;;;;;;;;;5049735;28;20033;-43
2023/01/18 12:13:19;;;;;;;1.48;0.68;;;;;;;;;;5047658;28;20344;-42
2023/01/18 12:15:45;;;;;;;;;;;;;;;;;;5051784;28;20041;-42
2023/01/18 12:18:11;;;;;;;3.42;1.13;;;;;;;;;;5051586;28;19904;-42
2023/01/18 12:20:52;;;;;;;1.17;0.73;;;;;;;;;;5050671;28;20420;-42
2023/01/18 12:23:38;;;;;;;1.20;0.70;;;;;;;;;;5064898;28;20100;-43
2023/01/18 12:26:11;;;;;;;1.15;0.70;;;;;;;;;;5051300;28;20036;-44
2023/01/18 12:28:39;;;;;;;1.33;0.70;;;;;;;;;;5050911;28;20052;-44
2023/01/18 12:31:13;;;;;;;1.38;0.77;;;;;;;;;;5051781;28;20136;-43
2023/01/18 12:33:45;;;;;;;1.60;0.77;;;;;;;;;;5050416;28;20104;-44
2023/01/18 12:36:11;;;;;;;;;;;;;;;;;;5051708;28;20370;-43
2023/01/18 12:38:38;;;;;;;1.08;0.77;;;;;;;;;;5049734;28;19905;-44
2023/01/18 12:41:23;;;;;;;2.30;0.77;;;;;;;;;;5051400;28;20033;-43
2023/01/18 12:43:55;;;;;;;1.10;0.93;;;;;;;;;;5050903;28;20113;-44
2023/01/18 12:46:26;;;;;;;1.65;0.60;;;;;;;;;;5049962;28;20386;-43
2023/01/18 12:48:55;;;;;;;1.00;0.90;;;;;;;;;;5050466;28;20098;-45
2023/01/18 12:51:22;;;;;;;2.40;0.75;;;;;;;;;;5050575;28;20123;-43
2023/01/18 12:53:55;;;;;;;1.35;0.73;;;;;;;;;;5050797;28;20104;-43
2023/01/18 12:56:31;;;;;;;1.70;0.68;;;;;;;;;;5051037;28;20028;-43
2023/01/18 12:59:00;;;;;;;0.75;0.57;;;;;;;;;;5051302;28;20025;-45
2023/01/18 13:01:29;;;;;;;1.90;1.05;;;;;;;;;;5050082;28;20029;-43
2023/01/18 13:03:57;;;;;;;0.80;0.68;;;;;;;;;;5050137;28;20430;-43
2023/01/18 13:06:24;;;;;;;2.05;0.85;;;;;;;;;;5050425;28;20025;-43
2023/01/18 13:08:57;;;;;;;1.52;0.65;;;;;;;;;;5050109;28;20051;-43
2023/01/18 13:11:31;;;;;;;1.05;0.80;;;;;;;;;;5049768;28;20029;-44
2023/01/18 13:14:08;;;;;;;1.55;0.93;;;;;;;;;;5050117;28;20021;-43
2023/01/18 13:16:50;;;;;;;2.70;0.75;;;;;;;;;;5049589;28;20060;-44
2023/01/18 13:19:19;;;;;;;0.98;0.80;;;;;;;;;;5049687;28;20029;-42
2023/01/18 13:21:55;;;;;;;1.67;1.05;;;;;;;;;;5049541;28;20029;-44
2023/01/18 13:24:39;;;;;;;1.25;0.73;;;;;;;;;;5049111;28;20029;-44
2023/01/18 13:27:06;;;;;;;0.82;0.70;;;;;;;;;;5050666;28;20017;-44
2023/01/18 13:29:32;;;;;;;0.50;0.50;;;;;;;;;;5049054;28;20322;-44
2023/01/18 13:31:59;;;;;;;1.60;0.75;;;;;;;;;;5050178;28;20459;-43
2023/01/18 13:34:31;;;;;;;0.73;0.57;;;;;;;;;;5049139;28;20470;-43
2023/01/18 13:36:57;;;;;;;2.25;0.90;;;;;;;;;;5050348;28;20053;-43
2023/01/18 13:39:24;;;;;;;1.00;0.70;;;;;;;;;;5048806;28;20036;-43
2023/01/18 13:42:25;;;;;;;0.60;0.60;;;;;;;;;;5049859;28;20040;-43
2023/01/18 13:45:10;;;;;;;1.10;0.70;;;;;;;;;;5049988;28;20030;-43
2023/01/18 13:47:44;;;;;;;2.55;0.80;;;;;;;;;;5049030;28;20028;-43
2023/01/18 13:50:30;;;;;;;1.45;0.60;;;;;;;;;;5049416;28;20033;-44
2023/01/18 13:53:14;;;;;;;2.67;0.93;;;;;;;;;;5050199;28;20498;-43
2023/01/18 13:55:41;;;;;;;1.92;1.10;;;;;;;;;;5049666;28;20036;-44
2023/01/18 13:58:37;;;;;;;0.88;0.60;;;;;;;;;;5049736;28;20378;-43
2023/01/18 14:01:04;;;;;;;1.77;0.85;;;;;;;;;;5029644;28;20045;-43
2023/01/18 14:03:30;;;;;;;1.00;0.88;;;;;;;;;;5048604;28;20029;-44
2023/01/18 14:05:57;;;;;;;0.70;0.60;;;;;;;;;;5050036;28;20585;-43
2023/01/18 14:08:30;;;;;;;4.35;0.85;;;;;;;;;;5048966;28;20025;-43
2023/01/18 14:11:03;;;;;;;1.88;0.85;;;;;;;;;;5049789;28;20104;-43
2023/01/18 14:13:44;;;;;;;1.55;0.70;;;;;;;;;;5046883;28;20029;-43
2023/01/18 14:16:15;;;;;;;1.58;0.50;;;;;;;;;;5038598;28;20080;-43
2023/01/18 14:18:48;;;;;;;0.55;0.47;;;;;;;;;;5045558;28;20470;-43
2023/01/18 14:21:17;;;;;;;1.38;1.17;;;;;;;;;;5049491;28;20048;-41
2023/01/18 14:24:03;;;;;;;1.50;0.65;;;;;;;;;;5064091;28;20021;-44
2023/01/18 14:26:30;;;;;;;1.90;0.70;;;;;;;;;;5049175;28;20029;-43
2023/01/18 14:28:56;;;;;;;1.33;0.70;;;;;;;;;;5049146;28;20025;-43
2023/01/18 14:31:40;;;;;;;1.35;1.05;;;;;;;;;;5051622;28;20536;-43
2023/01/18 14:34:25;;;;;;;0.93;0.80;;;;;;;;;;5039987;28;20021;-43
2023/01/18 14:36:51;;;;;;;1.42;0.90;;;;;;;;;;5053494;28;20501;-43
2023/01/18 14:39:17;;;;;;;1.52;1.02;;;;;;;;;;5052272;28;20417;-42
2023/01/18 14:41:45;;;;;;;2.47;0.80;;;;;;;;;;5053432;28;20021;-43
2023/01/18 14:44:16;;;;;;;2.38;0.98;;;;;;;;;;5053377;28;20045;-43
2023/01/18 14:46:42;;;;;;;1.25;0.65;;;;;;;;;;5053778;28;20021;-43
2023/01/18 14:49:14;;;;;;;1.17;1.00;;;;;;;;;;5051753;28;20025;-43
2023/01/18 14:51:45;;;;;;;2.08;0.63;;;;;;;;;;5052958;28;20041;-43
2023/01/18 14:54:13;;;;;;;0.65;0.52;;;;;;;;;;5052995;28;20036;-44
2023/01/18 14:56:41;;;;;;;1.48;0.90;;;;;;;;;;5052862;28;20036;-43
2023/01/18 14:59:19;;;;;;;1.80;0.55;;;;;;;;;;5052689;28;20428;-43
2023/01/18 15:01:55;;;;;;;1.13;0.80;;;;;;;;;;5036941;28;20493;-44
2023/01/18 15:04:23;;;;;;;1.67;0.70;;;;;;;;;;5051678;28;20048;-43
2023/01/18 15:06:51;;;;;;;1.08;0.70;;;;;;;;;;5052882;28;20063;-43
2023/01/18 15:09:21;;;;;;;2.38;0.95;;;;;;;;;;5051952;28;20029;-42
2023/01/18 15:11:47;;;;;;;1.90;0.90;;;;;;;;;;5053000;28;20100;-43
2023/01/18 15:14:24;;;;;;;1.25;0.88;;;;;;;;;;5052189;28;20075;-42
2023/01/18 15:16:53;;;;;;;2.15;1.30;;;;;;;;;;5052328;28;20045;-44
2023/01/18 15:19:21;;;;;;;9.27;1.52;;;;;;;;;;5046138;28;20372;-42
2023/01/18 15:21:47;;;;;;;2.80;1.00;;;;;;;;;;5059308;28;20088;-42
2023/01/18 15:24:16;;;;;;;3.53;1.02;;;;;;;;;;5052083;28;20033;-42
2023/01/18 15:26:52;;;;;;;6.38;1.20;;;;;;;;;;5045428;28;20842;-44
2023/01/18 15:29:20;;;;;;;3.42;1.10;;;;;;;;;;5051904;28;20032;-42
2023/01/18 15:31:48;;;;;;;2.03;0.90;;;;;;;;;;5064482;28;20386;-43